地図

経路データ

SID SEASON NUMBER BASIN SUBBASIN NAME ISO_TIME NATURE LAT LON WMO_WIND WMO_PRES WMO_AGENCY TRACK_TYPE DIST2LAND LANDFALL IFLAG USA_AGENCY USA_ATCF_ID USA_LAT USA_LON USA_RECORD USA_STATUS USA_WIND USA_PRES USA_SSHS USA_R34_NE USA_R34_SE USA_R34_SW USA_R34_NW USA_R50_NE USA_R50_SE USA_R50_SW USA_R50_NW USA_R64_NE USA_R64_SE USA_R64_SW USA_R64_NW USA_POCI USA_ROCI USA_RMW USA_EYE TOKYO_LAT TOKYO_LON TOKYO_GRADE TOKYO_WIND TOKYO_PRES TOKYO_R50_DIR TOKYO_R50_LONG TOKYO_R50_SHORT TOKYO_R30_DIR TOKYO_R30_LONG TOKYO_R30_SHORT TOKYO_LAND CMA_LAT CMA_LON CMA_CAT CMA_WIND CMA_PRES HKO_LAT HKO_LON HKO_CAT HKO_WIND HKO_PRES NEWDELHI_LAT NEWDELHI_LON NEWDELHI_GRADE NEWDELHI_WIND NEWDELHI_PRES NEWDELHI_CI NEWDELHI_DP NEWDELHI_POCI REUNION_LAT REUNION_LON REUNION_TYPE REUNION_WIND REUNION_PRES REUNION_TNUM REUNION_CI REUNION_RMW REUNION_R34_NE REUNION_R34_SE REUNION_R34_SW REUNION_R34_NW REUNION_R50_NE REUNION_R50_SE REUNION_R50_SW REUNION_R50_NW REUNION_R64_NE REUNION_R64_SE REUNION_R64_SW REUNION_R64_NW BOM_LAT BOM_LON BOM_TYPE BOM_WIND BOM_PRES BOM_TNUM BOM_CI BOM_RMW BOM_R34_NE BOM_R34_SE BOM_R34_SW BOM_R34_NW BOM_R50_NE BOM_R50_SE BOM_R50_SW BOM_R50_NW BOM_R64_NE BOM_R64_SE BOM_R64_SW BOM_R64_NW BOM_ROCI BOM_POCI BOM_EYE BOM_POS_METHOD BOM_PRES_METHOD NADI_LAT NADI_LON NADI_CAT NADI_WIND NADI_PRES WELLINGTON_LAT WELLINGTON_LON WELLINGTON_WIND WELLINGTON_PRES DS824_LAT DS824_LON DS824_STAGE DS824_WIND DS824_PRES TD9636_LAT TD9636_LON TD9636_STAGE TD9636_WIND TD9636_PRES TD9635_LAT TD9635_LON TD9635_WIND TD9635_PRES TD9635_ROCI NEUMANN_LAT NEUMANN_LON NEUMANN_CLASS NEUMANN_WIND NEUMANN_PRES MLC_LAT MLC_LON MLC_CLASS MLC_WIND MLC_PRES USA_GUST BOM_GUST BOM_GUST_PER REUNION_GUST REUNION_GUST_PER USA_SEAHGT USA_SEARAD_NE USA_SEARAD_SE USA_SEARAD_SW USA_SEARAD_NW STORM_SPEED STORM_DIR
1967348S12185 1968 143 SP MM NOT_NAMED 1967-12-14 00:00:00 TS -11.7000 -175.400 main 346 328 O________OO_O_ jtwc_sh SH051968 -11.7000 -175.400 -1 -11.7000 184.600 TC 65 -11.7000 -175.400 4 -11.7000 -175.400 TC 25 7 75
1967348S12185 1968 143 SP MM NOT_NAMED 1967-12-14 03:00:00 TS -11.6082 -175.049 main 319 304 P________PP_P_ SH051968 -11.6051 -175.050 -1 -11.6051 -175.050 TC 65 -11.6176 -175.045 4 -11.6051 -175.050 TC 27 7 74
1967348S12185 1968 143 SP MM NOT_NAMED 1967-12-14 06:00:00 TS -11.5045 -174.698 main 304 290 O________OP_O_ jtwc_sh SH051968 -11.5000 -174.700 -1 -11.5000 185.300 TC 65 -11.5179 -174.693 4 -11.5000 -174.700 TC 30 7 71
1967348S12185 1968 143 SP MM NOT_NAMED 1967-12-14 09:00:00 TS -11.3754 -174.348 main 286 283 P________PP_P_ SH051968 -11.3725 -174.350 -1 -11.3725 -174.350 TC 65 -11.3843 -174.344 4 -11.3725 -174.350 TC 32 8 66
1967348S12185 1968 143 SP MM NOT_NAMED 1967-12-14 12:00:00 TS -11.2000 -174.000 main 288 283 O________OO_O_ jtwc_sh SH051968 -11.2000 -174.000 -1 -11.2000 186.000 TC 65 -11.2000 -174.000 4 -11.2000 -174.000 TC 35 8 58
1967348S12185 1968 143 SP MM NOT_NAMED 1967-12-14 15:00:00 TS -10.9578 -173.653 main 296 296 P________PP_P_ SH051968 -10.9575 -173.650 -1 -10.9575 -173.650 TC 65 -10.9588 -173.662 4 -10.9575 -173.650 TC 37 8 54
1967348S12185 1968 143 SP MM NOT_NAMED 1967-12-14 18:00:00 TS -10.6993 -173.305 main 318 316 O________OP_O_ jtwc_sh SH051968 -10.7000 -173.300 -1 -10.7000 186.700 TC 65 -10.6972 -173.322 4 -10.7000 -173.300 TC 40 8 54
1967348S12185 1968 143 SP MM NOT_NAMED 1967-12-14 21:00:00 TS -10.4623 -172.963 main 336 336 P________PP_P_ SH051968 -10.4624 -172.957 -1 -10.4624 -172.957 TC 65 -10.4619 -172.971 4 -10.4624 -172.965 TC 42 8 60
1967348S12185 1968 143 SP MM NOT_NAMED 1967-12-15 00:00:00 TS -10.3000 -172.600 main 358 358 O________OO_O_ jtwc_sh SH051968 -10.3000 -172.600 -1 -10.3000 187.400 TC 65 -10.3000 -172.600 4 -10.3000 -172.600 TC 45 8 75
1967348S12185 1968 143 SP MM NOT_NAMED 1967-12-15 03:00:00 TS -10.2559 -172.193 main 359 359 P________PP_P_ SH051968 -10.2549 -172.215 -1 -10.2549 -172.215 TC 65 -10.2588 -172.185 4 -10.2550 -172.158 TC 47 8 90
1967348S12185 1968 143 SP MM NOT_NAMED 1967-12-15 06:00:00 TS -10.2988 -171.763 main 364 360 O________OP_O_ jtwc_sh SH051968 -10.3000 -171.800 -1 -10.3000 188.200 TC 65 -10.2951 -171.750 4 -10.3000 -171.700 TC 50 9 99
1967348S12185 1968 143 SP MM NOT_NAMED 1967-12-15 09:00:00 TS -10.3847 -171.322 main 367 364 P________PP_P_ SH051968 -10.3850 -171.343 -1 -10.3850 -171.343 TC 65 -10.3838 -171.316 4 -10.3849 -171.285 TC 52 9 103
1967348S12185 1968 143 SP MM NOT_NAMED 1967-12-15 12:00:00 TS -10.5000 -170.900 main 373 373 O________OO_O_ jtwc_sh SH051968 -10.5000 -170.900 -1 -10.5000 189.100 TC 65 -10.5000 -170.900 4 -10.5000 -170.900 TC 55 8 105
1967348S12185 1968 143 SP MM NOT_NAMED 1967-12-15 15:00:00 TS -10.5900 -170.540 main 384 384 P________PP_P_ SH051968 -10.5924 -170.535 -1 -10.5924 -170.535 TC 65 -10.5827 -170.548 4 -10.5924 -170.542 TC 57 7 106
1967348S12185 1968 143 SP MM NOT_NAMED 1967-12-15 18:00:00 TS -10.6974 -170.204 main 394 392 O________OP_O_ jtwc_sh SH051968 -10.7000 -170.200 -1 -10.7000 189.800 TC 65 -10.6894 -170.215 4 -10.7000 -170.200 TC 60 7 110
1967348S12185 1968 143 SP MM NOT_NAMED 1967-12-15 21:00:00 TS -10.8272 -169.869 main 406 405 P________PP_P_ SH051968 -10.8274 -169.865 -1 -10.8274 -169.865 TC 65 -10.8264 -169.873 4 -10.8274 -169.872 TC 62 8 114
1967348S12185 1968 143 SP MM NOT_NAMED 1967-12-16 00:00:00 TS -11.0000 -169.500 main 421 421 O________OO_O_ jtwc_sh SH051968 -11.0000 -169.500 -1 -11.0000 190.500 TC 65 -11.0000 -169.500 4 -11.0000 -169.500 TC 65 9 117
1967348S12185 1968 143 SP MM NOT_NAMED 1967-12-16 03:00:00 TS -11.2318 -169.052 main 437 437 P________PP_P_ SH051968 -11.2350 -169.072 -1 -11.2350 -169.072 TC 65 -11.2223 -169.049 4 -11.2351 -169.015 TC 67 10 118
1967348S12185 1968 143 SP MM NOT_NAMED 1967-12-16 06:00:00 TS -11.4944 -168.566 main 462 462 O________OP_O_ jtwc_sh SH051968 -11.5000 -168.600 -1 -11.5000 191.400 TC 65 -11.4777 -168.565 4 -11.5000 -168.500 TC 70 11 119
1967348S12185 1968 143 SP MM NOT_NAMED 1967-12-16 09:00:00 TS -11.7542 -168.074 main 493 493 P________PP_P_ SH051968 -11.7575 -168.093 -1 -11.7575 -168.093 TC 65 -11.7442 -168.074 4 -11.7574 -168.035 TC 67 11 118
1967348S12185 1968 143 SP MM NOT_NAMED 1967-12-16 12:00:00 TS -12.0000 -167.600 main 534 534 O________OO_O_ jtwc_sh SH051968 -12.0000 -167.600 -1 -12.0000 192.400 TC 65 -12.0000 -167.600 4 -12.0000 -167.600 TC 65 10 116
1967348S12185 1968 143 SP MM NOT_NAMED 1967-12-16 15:00:00 TS -12.1806 -167.190 main 567 567 P________PP_P_ SH051968 -12.2074 -167.185 -1 -12.2074 -167.185 TC 65 -12.1002 -167.197 4 -12.2074 -167.192 TC 62 9 114
1967348S12185 1968 143 SP MM NOT_NAMED 1967-12-16 18:00:00 TS -12.3511 -166.803 main 603 603 O________OP_O_ jtwc_sh SH051968 -12.4000 -166.800 -1 -12.4000 193.200 TC 65 -12.2045 -166.812 4 -12.4000 -166.800 TC 60 8 112
1967348S12185 1968 143 SP MM NOT_NAMED 1967-12-16 21:00:00 TS -12.4784 -166.423 main 642 642 P________PP_P_ SH051968 -12.5024 -166.422 -1 -12.5024 -166.422 TC 65 -12.4065 -166.421 4 -12.5023 -166.429 TC 60 9 120
1967348S12185 1968 143 SP MM NOT_NAMED 1967-12-17 00:00:00 TS -12.8000 -166.000 main 678 678 O________OO_O_ jtwc_sh SH051968 -12.8000 -166.000 -1 -12.8000 194.000 TC 65 -12.8000 -166.000 4 -12.8000 -166.000 TC 60 14 139
1967348S12185 1968 143 SP MM NOT_NAMED 1967-12-17 03:00:00 TS -13.5535 -165.452 main 724 724 P________PP_P_ SH051968 -13.5376 -165.465 -1 -13.5376 -165.465 TC 65 -13.6008 -165.470 4 -13.5378 -165.408 TC 57 20 148
1967348S12185 1968 143 SP MM NOT_NAMED 1967-12-17 06:00:00 TS -14.5196 -164.878 main 791 791 O________OP_O_ jtwc_sh SH051968 -14.5000 -164.900 -1 -14.5000 195.100 TC 65 -14.5785 -164.911 4 -14.5000 -164.800 TC 55 23 152
1967348S12185 1968 143 SP MM NOT_NAMED 1967-12-17 09:00:00 TS -15.5410 -164.349 main 871 871 P________PP_P_ SH051968 -15.5325 -164.363 -1 -15.5325 -164.363 TC 65 -15.5669 -164.370 4 -15.5324 -164.298 TC 52 21 153
1967348S12185 1968 143 SP MM NOT_NAMED 1967-12-17 12:00:00 TS -16.4000 -163.900 main 937 937 O________OO_O_ jtwc_sh SH051968 -16.4000 -163.900 -1 -16.4000 196.100 TC 65 -16.4000 -163.900 4 -16.4000 -163.900 TC 50 15 150
1967348S12185 1968 143 SP MM NOT_NAMED 1967-12-17 15:00:00 TS -16.8129 -163.581 main 981 981 P________PP_P_ SH051968 -16.8048 -163.554 -1 -16.8048 -163.554 TC 65 -16.8371 -163.596 4 -16.8048 -163.619 TC 47 8 139
1967348S12185 1968 143 SP MM NOT_NAMED 1967-12-17 18:00:00 TS -17.0264 -163.342 main 1019 1019 O________OP_O_ jtwc_sh SH051968 -17.0000 -163.300 -1 -17.0000 196.700 TC 65 -17.1057 -163.366 4 -17.0000 -163.400 TC 45 6 136
1967348S12185 1968 143 SP MM NOT_NAMED 1967-12-17 21:00:00 TS -17.2578 -163.131 main 1050 1050 P________PP_P_ SH051968 -17.2499 -163.100 -1 -17.2499 -163.100 TC 65 -17.2966 -163.153 4 -17.2349 -163.172 TC 42 6 138
1967348S12185 1968 143 SP MM NOT_NAMED 1967-12-18 00:00:00 TS -17.5000 -162.900 main 1078 1078 O________OO_O_ jtwc_sh SH051968 -17.5000 -162.900 -1 -17.5000 197.100 TC 65 -17.5000 -162.900 4 -17.5000 -162.900 TC 40 7 138
1967348S12185 1968 143 SP MM NOT_NAMED 1967-12-18 03:00:00 TS -17.7905 -162.625 main 1120 1120 P________PP_P_ SH051968 -17.7698 -162.652 -1 -17.7698 -162.652 TC 65 -17.7376 -162.664 4 -17.8850 -162.530 TC 37 9 136
1967348S12185 1968 143 SP MM NOT_NAMED 1967-12-18 06:00:00 TS -18.1299 -162.265 main 1162 1162 O________OP_O_ jtwc_sh SH051968 -18.1000 -162.300 -1 -18.1000 197.700 TC 65 -18.0196 -162.359 4 -18.3000 -162.100 TC 35 10 133
1967348S12185 1968 143 SP MM NOT_NAMED 1967-12-18 09:00:00 TS -18.4639 -161.866 main 1219 1219 P________PP_P_ SH051968 -18.4438 -161.890 -1 -18.4438 -161.890 TC 65 -18.4170 -161.901 4 -18.5510 -161.782 TC 35 13 131
1967348S12185 1968 143 SP MM NOT_NAMED 1967-12-18 12:00:00 TS -19.0000 -161.200 main 1309 1309 O________OO_O_ jtwc_sh SH051968 -19.0000 -161.200 -1 -19.0000 198.800 TC 65 -19.0000 -161.200 4 -19.0000 -161.200 TC 35 22 131
1967348S12185 1968 143 SP MM NOT_NAMED 1967-12-18 15:00:00 TS -19.9170 -160.072 main 1456 1456 P________PP_P_ SH051968 -19.9105 -160.078 -1 -19.9105 -160.078 TC 65 -19.8933 -160.096 4 -19.9537 -160.037 TC 32 31 130
1967348S12185 1968 143 SP MM NOT_NAMED 1967-12-18 18:00:00 TS -21.0137 -158.686 main 1642 1642 O________OP_O_ jtwc_sh SH051968 -21.0000 -158.700 -1 -21.0000 201.300 TC 65 -20.9549 -158.745 4 -21.1000 -158.600 TC 30 34 130
1967348S12185 1968 143 SP MM NOT_NAMED 1967-12-18 21:00:00 TS -22.1016 -157.263 main 1827 1827 P________PP_P_ SH051968 -22.0955 -157.271 -1 -22.0955 -157.271 TC 65 -22.0629 -157.295 4 -22.1525 -157.213 TC 30 33 129
1967348S12185 1968 143 SP MM NOT_NAMED 1967-12-19 00:00:00 TS -23.1000 -155.900 main 2007 2007 O________OO_O_ jtwc_sh SH051968 -23.1000 -155.900 -1 -23.1000 204.100 TC 65 -23.1000 -155.900 4 -23.1000 -155.900 TC 30 29 128
1967348S12185 1968 143 SP MM NOT_NAMED 1967-12-19 03:00:00 TS -23.8560 -154.784 main 2148 2148 P________PP_P_ SH051968 -23.8431 -154.787 -1 -23.8431 -154.787 TC 65 -23.9020 -154.768 4 -23.8358 -154.795 TC 27 24 126
1967348S12185 1968 143 SP MM NOT_NAMED 1967-12-19 06:00:00 TS -24.5315 -153.782 main 2269 2269 O________OP_O_ jtwc_sh SH051968 -24.5000 -153.800 -1 -24.5000 206.200 TC 65 -24.6260 -153.727 4 -24.5000 -153.800 TC 25 23 128
1967348S12185 1968 143 SP MM NOT_NAMED 1967-12-19 09:00:00 TS -25.2594 -152.775 main 2400 2400 P________PP_P_ SH051968 -25.2418 -152.784 -1 -25.2418 -152.784 TC 65 -25.3122 -152.747 4 -25.2418 -152.784 TC 25 23 129
1967348S12185 1968 143 SP MM NOT_NAMED 1967-12-19 12:00:00 TS -26.0000 -151.800 main 2525 2525 O________OO_O_ jtwc_sh SH051968 -26.0000 -151.800 -1 -26.0000 208.200 TC 65 -26.0000 -151.800 4 -26.0000 -151.800 TC 25 23 131
1967348S12185 1968 143 SP MM NOT_NAMED 1967-12-19 15:00:00 TS -26.7417 -150.845 main 2650 2650 P________PP_P_ SH051968 -26.7492 -150.841 -1 -26.7492 -150.841 TC 65 -26.7193 -150.858 4 -26.7492 -150.841 TC 25 23 131
1967348S12185 1968 143 SP MM NOT_NAMED 1967-12-19 18:00:00 TS -27.4917 -149.903 main 2771 2771 O________OP_O_ jtwc_sh SH051968 -27.5000 -149.900 -1 -27.5000 210.100 TC 65 -27.4669 -149.914 4 -27.5000 -149.900 TC 25 23 132
1967348S12185 1968 143 SP MM NOT_NAMED 1967-12-19 21:00:00 TS -28.2463 -148.957 main 2887 2887 P________PP_P_ SH051968 -28.2514 -148.955 -1 -28.2514 -148.955 TC 65 -28.2312 -148.962 4 -28.2514 -148.955 TC 22 23 132
1967348S12185 1968 143 SP MM NOT_NAMED 1967-12-20 00:00:00 TS -29.0000 -148.000 main 3015 O________OO_O_ jtwc_sh SH051968 -29.0000 -148.000 -1 -29.0000 212.000 TC 65 -29.0000 -148.000 4 -29.0000 -148.000 TC 20 23 132

デジタル台風データ・検索

IBTrACS Databaseについて

本データベースは、米国NOAAが公開する1842年以降の世界の熱帯低気圧のベストトラックデータアーカイブInternational Best Track Archive for Climate Stewardship (IBTrACS)を、ウェブで閲覧しやすい形式に変換したものです。

最終更新日:2021-12-06